createdAt,value
2022-08-07T00:01:43.951Z,101434.81
2022-08-07T00:04:06.331Z,101441.44
2022-08-07T00:06:37.470Z,101437.94
2022-08-07T00:09:17.241Z,101435.16
2022-08-07T00:11:56.152Z,101441.50
2022-08-07T00:14:31.465Z,101430.88
2022-08-07T00:17:01.611Z,101437.19
2022-08-07T00:20:00.426Z,101429.16
2022-08-07T00:22:24.428Z,101431.97
2022-08-07T00:25:05.295Z,101426.13
2022-08-07T00:27:51.865Z,101421.59
2022-08-07T00:30:27.049Z,101433.28
2022-08-07T00:32:57.021Z,101432.34
2022-08-07T00:35:25.432Z,101435.41
2022-08-07T00:37:54.903Z,101433.34
2022-08-07T00:40:36.594Z,101435.84
2022-08-07T00:43:09.899Z,101404.38
2022-08-07T00:45:40.344Z,101410.81
2022-08-07T00:48:11.050Z,101428.53
2022-08-07T00:50:51.292Z,101423.75
2022-08-07T00:53:20.640Z,101417.75
2022-08-07T00:56:03.181Z,101423.94
2022-08-07T00:58:32.592Z,101421.38
2022-08-07T01:01:02.490Z,101428.50
2022-08-07T01:03:54.835Z,101427.47
2022-08-07T01:06:20.205Z,101421.38
2022-08-07T01:08:53.676Z,101359.50
2022-08-07T01:12:09.452Z,101400.94
2022-08-07T01:14:12.243Z,101417.94
2022-08-07T01:16:47.311Z,101418.31
2022-08-07T01:19:19.744Z,101412.78
2022-08-07T01:21:55.316Z,101409.22
2022-08-07T01:24:30.671Z,101409.91
2022-08-07T01:27:01.120Z,101412.94
2022-08-07T01:29:33.796Z,101410.22
2022-08-07T01:32:12.267Z,101415.66
2022-08-07T01:34:47.392Z,101410.50
2022-08-07T01:37:20.098Z,101288.88
2022-08-07T01:39:51.104Z,101412.38
2022-08-07T01:42:39.624Z,101412.25
2022-08-07T01:45:22.900Z,101404.38
2022-08-07T01:48:20.924Z,101405.38
2022-08-07T01:50:50.342Z,101404.50
2022-08-07T01:54:09.554Z,101402.22
2022-08-07T01:56:15.368Z,101398.56
2022-08-07T01:58:50.958Z,101401.38
2022-08-07T02:02:00.170Z,101398.75
2022-08-07T02:04:26.666Z,101397.63
2022-08-07T02:07:02.160Z,101393.22
2022-08-07T02:09:54.709Z,101381.53
2022-08-07T02:12:29.310Z,101387.06
2022-08-07T02:15:01.600Z,101385.47
2022-08-07T02:17:49.802Z,101391.78
2022-08-07T02:20:23.549Z,101373.13
2022-08-07T02:22:59.678Z,101391.72
2022-08-07T02:26:31.905Z,101389.13
2022-08-07T02:28:24.673Z,101385.59
2022-08-07T02:30:56.856Z,101339.03
2022-08-07T02:33:42.166Z,101383.94
2022-08-07T02:36:29.081Z,101380.53
2022-08-07T02:39:16.747Z,101384.91
2022-08-07T02:41:56.801Z,101377.34
2022-08-07T02:44:34.519Z,101382.78
2022-08-07T02:47:06.870Z,101380.97
2022-08-07T02:49:57.753Z,101380.31
2022-08-07T02:52:30.958Z,101386.47
2022-08-07T02:55:04.083Z,101384.72
2022-08-07T02:57:37.706Z,101379.00
2022-08-07T03:00:11.080Z,101382.59
2022-08-07T03:02:54.802Z,101382.75
2022-08-07T03:05:25.332Z,101379.50
2022-08-07T03:08:07.795Z,101375.97
2022-08-07T03:10:46.721Z,101375.84
2022-08-07T03:13:20.303Z,101375.97
2022-08-07T03:15:56.299Z,101388.66
2022-08-07T03:18:34.965Z,101377.94
2022-08-07T03:21:08.889Z,101386.91
2022-08-07T03:24:20.399Z,101378.78
2022-08-07T03:26:34.888Z,101378.88
2022-08-07T03:29:11.215Z,101379.81
2022-08-07T03:31:46.585Z,101390.78
2022-08-07T03:34:22.168Z,101386.25
2022-08-07T03:36:53.968Z,101378.28
2022-08-07T03:40:00.002Z,101384.47
2022-08-07T03:42:14.296Z,101380.03
2022-08-07T03:44:53.256Z,101369.47
2022-08-07T03:47:29.604Z,101336.75
2022-08-07T03:50:17.575Z,101372.06
2022-08-07T03:52:53.025Z,101375.63
2022-08-07T03:55:22.185Z,101365.84
2022-08-07T03:58:35.019Z,101378.28
2022-08-07T04:00:46.312Z,101380.03
2022-08-07T04:03:22.576Z,101282.69
2022-08-07T04:05:53.484Z,101379.00
2022-08-07T04:08:28.111Z,101371.78
2022-08-07T04:12:20.749Z,101336.75
2022-08-07T04:14:10.348Z,101338.53
2022-08-07T04:16:38.367Z,101384.34
2022-08-07T04:19:12.828Z,101365.25
2022-08-07T04:22:05.360Z,101388.88
2022-08-07T04:24:42.046Z,101394.06
2022-08-07T04:27:15.187Z,101384.94
2022-08-07T04:30:02.010Z,101383.13
2022-08-07T04:32:58.429Z,101379.78
2022-08-07T04:35:35.427Z,101387.66
2022-08-07T04:38:11.542Z,101393.28
2022-08-07T04:40:52.418Z,101391.25
2022-08-07T04:44:10.216Z,101364.97
2022-08-07T04:46:29.448Z,101389.81
2022-08-07T04:49:18.310Z,101300.97
2022-08-07T04:52:04.575Z,101390.78
2022-08-07T04:54:37.705Z,101386.25
2022-08-07T04:58:12.161Z,101367.09
2022-08-07T05:00:18.967Z,101387.28
2022-08-07T05:03:31.196Z,101312.22
2022-08-07T05:06:02.219Z,101399.47
2022-08-07T05:09:01.562Z,101394.31
2022-08-07T05:11:57.422Z,101393.25
2022-08-07T05:14:52.380Z,101394.66
2022-08-07T05:18:00.648Z,101383.25
2022-08-07T05:20:14.707Z,101332.19
2022-08-07T05:22:49.059Z,101406.91
2022-08-07T05:25:25.884Z,101396.78
2022-08-07T05:28:20.317Z,101395.22
2022-08-07T05:30:55.291Z,101394.75
2022-08-07T05:33:29.808Z,101330.59
2022-08-07T05:36:00.232Z,101396.00
2022-08-07T05:38:59.824Z,101396.47
2022-08-07T05:41:21.976Z,101394.53
2022-08-07T05:44:08.136Z,101394.28
2022-08-07T05:46:44.119Z,101406.66
2022-08-07T05:49:14.431Z,101404.50
2022-08-07T05:51:48.120Z,101391.78
2022-08-07T05:54:44.151Z,101410.28
2022-08-07T05:57:11.793Z,101411.72
2022-08-07T05:59:55.637Z,101383.25
2022-08-07T06:02:30.713Z,101416.31
2022-08-07T06:05:06.042Z,101412.03
2022-08-07T06:08:13.406Z,101411.91
2022-08-07T06:10:27.509Z,101407.44
2022-08-07T06:12:55.880Z,101410.91
2022-08-07T06:15:39.419Z,101394.44
2022-08-07T06:18:14.498Z,101376.75
2022-08-07T06:20:51.150Z,101416.63
2022-08-07T06:24:38.584Z,101411.78
2022-08-07T06:26:27.431Z,101408.25
2022-08-07T06:29:01.217Z,101411.38
2022-08-07T06:31:38.364Z,101416.34
2022-08-07T06:34:15.256Z,101415.16
2022-08-07T06:36:47.975Z,101414.38
2022-08-07T06:40:16.390Z,101414.34
2022-08-07T06:42:17.591Z,101413.69
2022-08-07T06:45:07.777Z,101424.09
2022-08-07T06:47:48.270Z,101419.03
2022-08-07T06:50:30.447Z,101331.09
2022-08-07T06:53:04.219Z,101411.25
2022-08-07T06:55:48.078Z,101405.50
2022-08-07T06:58:27.564Z,101404.72
2022-08-07T07:01:04.186Z,101384.28
2022-08-07T07:03:48.686Z,101404.38
2022-08-07T07:06:26.119Z,101398.09
2022-08-07T07:08:56.794Z,101349.09
2022-08-07T07:12:07.747Z,101383.78
2022-08-07T07:14:21.783Z,101390.59
2022-08-07T07:16:54.414Z,101401.53
2022-08-07T07:19:56.513Z,101389.16
2022-08-07T07:22:36.413Z,101390.22
2022-08-07T07:26:30.773Z,101389.47
2022-08-07T07:28:03.026Z,101396.66
2022-08-07T07:30:40.145Z,101374.53
2022-08-07T07:33:12.195Z,101392.28
2022-08-07T07:36:03.912Z,101330.34
2022-08-07T07:38:35.000Z,101356.81
2022-08-07T07:41:08.849Z,101380.19
2022-08-07T07:44:14.901Z,101381.66
2022-08-07T07:46:38.539Z,101365.84
2022-08-07T07:50:35.099Z,101299.97
2022-08-07T07:52:13.913Z,101372.59
2022-08-07T07:54:50.544Z,101364.44
2022-08-07T07:57:29.065Z,101365.69
2022-08-07T08:00:12.508Z,101352.13
2022-08-07T08:03:04.586Z,101347.59
2022-08-07T08:05:53.714Z,101351.84
2022-08-07T08:08:34.447Z,101350.28
2022-08-07T08:11:08.661Z,101345.34
2022-08-07T08:13:53.461Z,101355.81
2022-08-07T08:16:31.010Z,101360.03
2022-08-07T08:19:09.659Z,101355.44
2022-08-07T08:22:07.810Z,101321.03
2022-08-07T08:25:04.781Z,101347.09
2022-08-07T08:27:56.770Z,101342.41
2022-08-07T08:30:28.971Z,101338.78
2022-08-07T08:33:01.453Z,101338.63
2022-08-07T08:35:39.515Z,101354.22
2022-08-07T08:38:17.940Z,101326.81
2022-08-07T08:40:54.751Z,101341.81
2022-08-07T08:43:42.820Z,101342.53
2022-08-07T08:46:29.903Z,101343.50
2022-08-07T08:49:08.266Z,101288.88
2022-08-07T08:52:13.338Z,101340.41
2022-08-07T08:54:42.985Z,101336.28
2022-08-07T08:57:21.495Z,101344.56
2022-08-07T08:59:58.236Z,101349.81
2022-08-07T09:02:38.662Z,101303.41
2022-08-07T09:05:32.070Z,101341.72
2022-08-07T09:08:24.313Z,101272.28
2022-08-07T09:11:05.636Z,101339.75
2022-08-07T09:13:44.410Z,101325.25
2022-08-07T09:16:22.758Z,101335.16
2022-08-07T09:19:51.821Z,101324.16
2022-08-07T09:24:28.762Z,101316.00
2022-08-07T09:25:17.269Z,101317.44
2022-08-07T09:28:01.157Z,101323.78
2022-08-07T09:30:44.177Z,101283.78
2022-08-07T09:33:52.552Z,101314.00
2022-08-07T09:36:31.177Z,101310.81
2022-08-07T09:39:54.148Z,101314.19
2022-08-07T09:42:22.930Z,101311.28
2022-08-07T09:47:24.493Z,101303.56
2022-08-07T09:48:12.033Z,101308.19
2022-08-07T09:50:55.467Z,101312.72
2022-08-07T09:53:25.785Z,101297.25
2022-08-07T09:56:19.675Z,101304.31
2022-08-07T09:59:21.587Z,101201.56
2022-08-07T10:02:10.030Z,101258.91
2022-08-07T10:05:00.915Z,101283.81
2022-08-07T10:08:05.271Z,101274.91
2022-08-07T10:11:59.437Z,101278.75
2022-08-07T10:14:01.654Z,101266.19
2022-08-07T10:17:14.189Z,101281.13
2022-08-07T10:20:00.512Z,101275.13
2022-08-07T10:22:56.220Z,101265.91
2022-08-07T10:25:43.052Z,101226.56
2022-08-07T10:28:38.390Z,101270.13
2022-08-07T10:31:22.038Z,101269.41
2022-08-07T10:34:17.878Z,101276.28
2022-08-07T10:37:12.434Z,101239.44
2022-08-07T10:39:57.531Z,101267.44
2022-08-07T10:42:38.429Z,101225.47
2022-08-07T10:45:44.996Z,101257.69
2022-08-07T10:48:34.615Z,101256.97
2022-08-07T10:51:16.810Z,101264.06
2022-08-07T10:54:04.209Z,101195.56
2022-08-07T10:56:42.338Z,101247.75
2022-08-07T10:59:22.083Z,101237.94
2022-08-07T11:02:05.457Z,101247.81
2022-08-07T11:04:53.899Z,101253.41
2022-08-07T11:07:58.388Z,101236.84
2022-08-07T11:10:27.544Z,101236.44
2022-08-07T11:13:02.493Z,101232.44
2022-08-07T11:15:35.911Z,101232.47
2022-08-07T11:18:12.581Z,101231.91
2022-08-07T11:20:49.519Z,101214.44
2022-08-07T11:23:30.616Z,101223.97
2022-08-07T11:26:13.335Z,101135.84
2022-08-07T11:28:55.140Z,101212.50
2022-08-07T11:31:38.395Z,101210.19
2022-08-07T11:34:18.103Z,101193.03
2022-08-07T11:37:00.430Z,101203.59
2022-08-07T11:39:59.780Z,101204.13
2022-08-07T11:42:40.078Z,101207.03
2022-08-07T11:45:23.763Z,101109.34
2022-08-07T11:48:31.565Z,101204.38
2022-08-07T11:51:41.157Z,101194.09
2022-08-07T11:54:18.528Z,101188.81
2022-08-07T11:57:06.852Z,101196.31
2022-08-07T12:00:10.041Z,101150.09
2022-08-07T12:03:41.735Z,101190.41
2022-08-07T12:06:37.057Z,101124.56
2022-08-07T12:09:16.469Z,101160.09
2022-08-07T12:12:10.576Z,101175.94
2022-08-07T12:14:53.887Z,101174.97
2022-08-07T12:17:33.578Z,101178.94
2022-08-07T12:20:20.070Z,101158.06
2022-08-07T12:24:06.153Z,101169.09
2022-08-07T12:26:28.595Z,101124.19
2022-08-07T12:29:07.410Z,101158.19
2022-08-07T12:32:02.018Z,101161.88
2022-08-07T12:34:33.195Z,101165.81
2022-08-07T12:37:08.744Z,101157.03
2022-08-07T12:39:50.723Z,101161.03
2022-08-07T12:42:27.497Z,101135.09
2022-08-07T12:45:05.716Z,101147.97
2022-08-07T12:47:43.943Z,101151.34
2022-08-07T12:50:34.184Z,101140.03
2022-08-07T12:53:17.799Z,101092.50
2022-08-07T12:56:02.504Z,101138.47
2022-08-07T12:58:37.561Z,101142.72
2022-08-07T13:01:19.772Z,101139.88
2022-08-07T13:04:06.431Z,101065.16
2022-08-07T13:07:08.096Z,101137.19
2022-08-07T13:10:19.561Z,101131.78
2022-08-07T13:12:56.059Z,101133.06
2022-08-07T13:15:31.630Z,101137.00
2022-08-07T13:18:18.465Z,101110.38
2022-08-07T13:21:00.911Z,101038.81
2022-08-07T13:24:04.144Z,101087.28
2022-08-07T13:26:35.673Z,101104.84
2022-08-07T13:29:12.931Z,101094.00
2022-08-07T13:31:57.917Z,101121.09
2022-08-07T13:34:39.352Z,101119.88
2022-08-07T13:37:21.611Z,101109.88
2022-08-07T13:40:35.413Z,101109.13
2022-08-07T13:42:53.769Z,101082.31
2022-08-07T13:46:11.379Z,101106.66
2022-08-07T13:48:27.752Z,101105.91
2022-08-07T13:51:27.412Z,101100.22
2022-08-07T13:54:01.651Z,101039.19
2022-08-07T13:56:35.357Z,101096.25
2022-08-07T13:59:12.755Z,101003.13
2022-08-07T14:01:50.987Z,101042.78
2022-08-07T14:04:35.766Z,101093.47
2022-08-07T14:07:11.326Z,101037.81
2022-08-07T14:10:01.422Z,101090.25
2022-08-07T14:12:42.021Z,101041.31
2022-08-07T14:15:28.224Z,101061.41
2022-08-07T14:18:28.000Z,101011.94
2022-08-07T14:21:20.601Z,101072.38
2022-08-07T14:24:03.928Z,101071.25
2022-08-07T14:26:38.994Z,101026.69
2022-08-07T14:30:07.314Z,101041.00
2022-08-07T14:32:04.804Z,100910.44
2022-08-07T14:34:34.811Z,101026.25
2022-08-07T14:37:17.622Z,101056.34
2022-08-07T14:40:16.211Z,101072.16
2022-08-07T14:43:01.263Z,101000.97
2022-08-07T14:45:48.691Z,101056.69
2022-08-07T14:48:20.242Z,101051.63
2022-08-07T14:50:53.205Z,101052.97
2022-08-07T14:54:08.877Z,101028.81
2022-08-07T14:56:15.409Z,101050.88
2022-08-07T14:59:13.958Z,101058.38
2022-08-07T15:01:54.333Z,101053.44
2022-08-07T15:04:28.848Z,101049.88
2022-08-07T15:06:58.267Z,101048.34
2022-08-07T15:09:58.181Z,101045.13
2022-08-07T15:12:30.451Z,101026.25
2022-08-07T15:15:07.729Z,101010.41
2022-08-07T15:17:55.546Z,101033.94
2022-08-07T15:20:33.656Z,101036.66
2022-08-07T15:26:20.924Z,100977.63
2022-08-07T15:28:59.639Z,100974.13
2022-08-07T15:32:01.554Z,101012.00
2022-08-07T15:34:36.255Z,100951.22
2022-08-07T15:37:07.117Z,100964.13
2022-08-07T15:42:46.487Z,100948.66
2022-08-07T15:45:55.731Z,101024.38
2022-08-07T15:48:25.817Z,100997.47
2022-08-07T15:51:09.021Z,101022.78
2022-08-07T15:53:51.805Z,101017.13
2022-08-07T15:56:24.645Z,101008.81
2022-08-07T15:58:58.042Z,101003.22
2022-08-07T16:01:39.378Z,101009.31
2022-08-07T16:04:14.639Z,100995.13
2022-08-07T16:06:49.600Z,101006.97
2022-08-07T16:09:23.422Z,101012.69
2022-08-07T16:12:37.938Z,100987.72
2022-08-07T16:15:55.146Z,100951.16
2022-08-07T16:18:43.450Z,100977.25
2022-08-07T16:21:56.884Z,100981.91
2022-08-07T16:24:34.924Z,100974.63
2022-08-07T16:27:18.235Z,100961.06
2022-08-07T16:30:31.435Z,100830.13
2022-08-07T16:34:02.249Z,100975.25
2022-08-07T16:36:20.129Z,101004.81
2022-08-07T16:39:06.058Z,100990.19
2022-08-07T16:41:56.036Z,100999.16
2022-08-07T16:45:04.045Z,100974.16
2022-08-07T16:48:28.699Z,100996.59
2022-08-07T16:51:54.560Z,101004.44
2022-08-07T16:54:32.695Z,101005.03
2022-08-07T16:58:00.751Z,101009.06
2022-08-07T17:00:29.895Z,101018.78
2022-08-07T17:03:58.435Z,101005.84
2022-08-07T17:06:31.435Z,100997.94
2022-08-07T17:09:14.321Z,101004.94
2022-08-07T17:12:35.611Z,100927.22
2022-08-07T17:15:05.350Z,101003.47
2022-08-07T17:17:46.390Z,100922.97
2022-08-07T17:20:29.896Z,100977.63
2022-08-07T17:23:11.400Z,101002.44
2022-08-07T17:25:54.593Z,101004.09
2022-08-07T17:28:32.529Z,100713.09
2022-08-07T17:31:15.690Z,100955.03
2022-08-07T17:34:15.025Z,100998.03
2022-08-07T17:36:57.476Z,100999.38
2022-08-07T17:39:57.903Z,100884.63
2022-08-07T17:42:58.479Z,100985.16
2022-08-07T17:45:34.170Z,101000.06
2022-08-07T17:48:10.352Z,100996.31
2022-08-07T17:50:54.379Z,100989.00
2022-08-07T17:53:59.486Z,100983.38
2022-08-07T17:56:30.080Z,101000.91
2022-08-07T17:59:09.803Z,101004.88
2022-08-07T18:01:48.545Z,101005.03
2022-08-07T18:04:31.221Z,100914.78
2022-08-07T18:07:23.750Z,100992.47
2022-08-07T18:10:07.254Z,100995.06
2022-08-07T18:13:09.753Z,100999.25
2022-08-07T18:15:51.819Z,101005.47
2022-08-07T18:18:45.046Z,101006.44
2022-08-07T18:21:38.365Z,100962.66
2022-08-07T18:24:32.973Z,101008.59
2022-08-07T18:27:17.432Z,101010.81
2022-08-07T18:30:31.316Z,101018.38
2022-08-07T18:33:39.128Z,101022.50
2022-08-07T18:36:33.378Z,101008.63
2022-08-07T18:40:08.770Z,101016.81
2022-08-07T18:42:17.428Z,101026.97
2022-08-07T18:48:01.283Z,101016.00
2022-08-07T18:50:54.379Z,101028.13
2022-08-07T18:53:39.827Z,101038.25
2022-08-07T18:56:16.256Z,101023.78
2022-08-07T18:59:00.789Z,101050.47
2022-08-07T19:02:17.344Z,101047.72
2022-08-07T19:04:59.439Z,101045.81
2022-08-07T19:07:34.852Z,101050.47
2022-08-07T19:10:12.144Z,101019.63
2022-08-07T19:12:57.844Z,101057.44
2022-08-07T19:16:04.956Z,101048.97
2022-08-07T19:18:45.159Z,101061.88
2022-08-07T19:21:44.157Z,101062.66
2022-08-07T19:24:30.845Z,101070.56
2022-08-07T19:28:58.313Z,101068.13
2022-08-07T19:31:06.200Z,101055.44
2022-08-07T19:32:46.961Z,101076.78
2022-08-07T19:35:22.372Z,101088.94
2022-08-07T19:37:58.386Z,101077.88
2022-08-07T19:40:31.324Z,101042.75
2022-08-07T19:43:08.551Z,101020.75
2022-08-07T19:46:06.282Z,101105.91
2022-08-07T19:48:42.664Z,101109.56
2022-08-07T19:51:20.193Z,101098.19
2022-08-07T19:54:29.603Z,101107.84
2022-08-07T19:57:56.852Z,101109.91
2022-08-07T19:59:50.517Z,101108.31
2022-08-07T20:02:30.466Z,101107.38
2022-08-07T20:05:03.203Z,101099.25
2022-08-07T20:07:46.182Z,101101.41
2022-08-07T20:10:36.999Z,101100.16
2022-08-07T20:13:22.861Z,101100.94
2022-08-07T20:15:55.250Z,101102.44
2022-08-07T20:18:33.680Z,101105.53
2022-08-07T20:21:20.888Z,101097.53
2022-08-07T20:23:55.002Z,101081.19
2022-08-07T20:26:44.892Z,101103.44
2022-08-07T20:29:47.847Z,101108.16
2022-08-07T20:32:11.456Z,101104.78
2022-08-07T20:34:55.560Z,101103.56
2022-08-07T20:37:33.908Z,101104.41
2022-08-07T20:40:32.591Z,101100.38
2022-08-07T20:42:58.796Z,101109.72
2022-08-07T20:45:33.640Z,101105.09
2022-08-07T20:48:30.337Z,101091.19
2022-08-07T20:51:00.718Z,101112.66
2022-08-07T20:54:03.946Z,101101.47
2022-08-07T20:56:26.380Z,101098.09
2022-08-07T20:59:02.420Z,101106.28
2022-08-07T21:01:45.216Z,101094.28
2022-08-07T21:04:26.887Z,101083.94
2022-08-07T21:06:59.249Z,101111.16
2022-08-07T21:09:51.904Z,101102.88
2022-08-07T21:12:28.935Z,101111.00
2022-08-07T21:15:08.255Z,101109.44
2022-08-07T21:18:17.555Z,101109.09
2022-08-07T21:20:33.166Z,101120.16
2022-08-07T21:23:08.120Z,101119.72
2022-08-07T21:25:56.968Z,101099.44
2022-08-07T21:28:48.029Z,101109.47
2022-08-07T21:31:49.398Z,100925.59
2022-08-07T21:34:31.857Z,101122.38
2022-08-07T21:37:04.195Z,101126.09
2022-08-07T21:39:45.110Z,101092.53
2022-08-07T21:42:46.226Z,101111.28
2022-08-07T21:46:07.513Z,101014.63
2022-08-07T21:48:27.747Z,101128.81
2022-08-07T21:51:19.915Z,101084.94
2022-08-07T21:53:54.694Z,101126.50
2022-08-07T21:56:47.844Z,101127.59
2022-08-07T22:00:02.622Z,101137.16
2022-08-07T22:02:29.650Z,101054.03
2022-08-07T22:05:04.074Z,101011.34
2022-08-07T22:07:57.768Z,101054.94
2022-08-07T22:10:28.998Z,101139.00
2022-08-07T22:13:05.709Z,101103.41
2022-08-07T22:16:39.489Z,101138.56
2022-08-07T22:18:40.864Z,101142.75
2022-08-07T22:21:19.270Z,101101.31
2022-08-07T22:23:53.923Z,101057.56
2022-08-07T22:26:26.813Z,101132.94
2022-08-07T22:29:04.932Z,100996.31
2022-08-07T22:32:00.338Z,101109.84
2022-08-07T22:34:53.173Z,100932.91
2022-08-07T22:38:02.879Z,101114.66
2022-08-07T22:40:28.181Z,101113.59
2022-08-07T22:43:03.807Z,101135.81
2022-08-07T22:46:21.748Z,101051.47
2022-08-07T22:49:07.766Z,101143.75
2022-08-07T22:52:00.603Z,101070.50
2022-08-07T22:54:40.332Z,101145.09
2022-08-07T22:57:43.053Z,101091.94
2022-08-07T23:00:18.356Z,101035.41
2022-08-07T23:03:02.071Z,101039.47
2022-08-07T23:06:09.290Z,101122.19
2022-08-07T23:08:51.576Z,101137.31
2022-08-07T23:11:46.030Z,101132.09
2022-08-07T23:14:25.945Z,101145.94
2022-08-07T23:17:22.157Z,101144.44
2022-08-07T23:20:16.526Z,101139.72
2022-08-07T23:23:01.024Z,100999.81
2022-08-07T23:25:52.775Z,101138.22
2022-08-07T23:28:44.288Z,101063.59
2022-08-07T23:32:49.033Z,101142.63
2022-08-07T23:34:54.095Z,101054.53
2022-08-07T23:38:00.402Z,101047.97
2022-08-07T23:40:37.142Z,101141.59
2022-08-07T23:43:37.871Z,101140.94
2022-08-07T23:46:29.394Z,101066.81
2022-08-07T23:49:20.515Z,101065.31
2022-08-07T23:53:01.649Z,101143.13
2022-08-07T23:54:54.216Z,101122.28
2022-08-07T23:57:29.406Z,101109.53
